Time;durP1;ratioP1;P1;durP2;ratioP2;P2;SDS_P1;SDS_P2;PMS_P1;PMS_P2;Temp;Humidity;BMP_temperature;BMP_pressure;BME280_temperature;BME280_humidity;BME280_pressure;Samples;Min_cycle;Max_cycle;Signal;HPM_P1;HPM_P2
2022/10/11 00:00:01;;;;;;;;;;;;;;;14.49;74.85;101258.59;5020791;28;20304;-76
2022/10/11 00:02:45;;;;;;;;;;;;;;;14.43;75.43;101251.69;4995553;28;19922;-76
2022/10/11 00:05:29;;;;;;;;;;;;;;;14.60;74.67;101255.47;5007980;28;20300;-76
2022/10/11 00:08:14;;;;;;;;;;;;;;;14.77;73.79;101258.97;5016773;28;19921;-76
2022/10/11 00:10:59;;;;;;;;;;;;;;;14.59;74.43;101251.13;5015842;28;19913;-74
2022/10/11 00:13:43;;;;;;;;;;;;;;;14.52;74.96;101251.66;5016155;28;19914;-77
2022/10/11 00:16:28;;;;;;;;;;;;;;;14.57;74.99;101253.41;5016688;28;19913;-75
2022/10/11 00:19:13;;;;;;;;;;;;;;;14.42;75.20;101250.09;5014702;28;19913;-75
2022/10/11 00:21:59;;;;;;;;;;;;;;;14.39;75.41;101253.47;5016103;28;19990;-78
2022/10/11 00:24:44;;;;;;;;;;;;;;;14.43;75.69;101254.41;5019436;28;20299;-78
2022/10/11 00:27:28;;;;;;;;;;;;;;;14.51;75.15;101259.06;5017395;28;19913;-78
2022/10/11 00:30:13;;;;;;;;;;;;;;;14.46;75.07;101253.78;5016395;28;19913;-77
2022/10/11 00:32:57;;;;;;;;;;;;;;;14.54;75.08;101249.38;5019237;28;19917;-77
2022/10/11 00:35:42;;;;;;;;;;;;;;;14.51;75.25;101244.59;5017154;28;19913;-77
2022/10/11 00:38:26;;;;;;;;;;;;;;;14.41;75.50;101250.41;5020586;28;19917;-77
2022/10/11 00:41:11;;;;;;;;;;;;;;;14.54;75.29;101249.38;5018067;28;19913;-78
2022/10/11 00:44:07;;;;;;;;;;;;;;;14.57;74.29;101246.00;5016221;28;20365;-76
2022/10/11 00:47:00;;;;;;;;;;;;;;;14.59;74.10;101246.47;5010409;28;19918;-77
2022/10/11 00:49:49;;;;;;;;;;;;;;;14.59;74.35;101251.13;5001567;28;19917;-80
2022/10/11 00:52:36;;;;;;;;;;;;;;;14.67;73.69;101244.84;5015645;28;19913;-77
2022/10/11 00:55:21;;;;;;;;;;;;;;;14.45;74.77;101246.69;5018665;28;19913;-78
2022/10/11 00:58:06;;;;;;;;;;;;;;;14.53;74.58;101248.59;5016517;28;19914;-78
2022/10/11 01:00:50;;;;;;;;;;;;;;;14.26;75.38;101251.72;5014799;28;19913;-77
2022/10/11 01:03:37;;;;;;;;;;;;;;;14.30;75.42;101246.41;5014831;28;19913;-77
2022/10/11 01:06:21;;;;;;;;;;;;;;;14.23;75.80;101246.88;5015153;28;19917;-77
2022/10/11 01:09:06;;;;;;;;;;;;;;;14.15;76.44;101245.00;5014599;28;19921;-76
2022/10/11 01:11:52;;;;;;;;;;;;;;;14.20;75.98;101246.75;5015675;28;19913;-76
2022/10/11 01:15:06;;;;;;;;;;;;;;;14.29;75.38;101242.06;5015126;28;19913;-76
2022/10/11 01:17:56;;;;;;;;;;;;;;;14.19;75.89;101243.22;5014802;28;19918;-76
2022/10/11 01:20:59;;;;;;;;;;;;;;;14.14;75.66;101246.94;5016597;28;19913;-76
2022/10/11 01:24:02;;;;;;;;;;;;;;;14.08;75.85;101231.00;5015100;28;20284;-77
2022/10/11 01:26:50;;;;;;;;;;;;;;;14.01;75.82;101247.13;5014716;28;19921;-77
2022/10/11 01:29:37;;;;;;;;;;;;;;;13.94;76.22;101235.88;5014127;28;19914;-78
2022/10/11 01:32:25;;;;;;;;;;;;;;;14.18;75.61;101240.78;5014799;28;19917;-78
2022/10/11 01:35:15;;;;;;;;;;;;;;;14.24;74.97;101240.28;5017008;28;20364;-78
2022/10/11 01:38:18;;;;;;;;;;;;;;;14.42;73.92;101241.09;5014136;28;19913;-74
2022/10/11 01:41:06;;;;;;;;;;;;;;;14.44;73.61;101236.88;5017451;28;19920;-75
2022/10/11 01:43:54;;;;;;;;;;;;;;;14.56;72.93;101238.94;5016433;28;19939;-75
2022/10/11 01:46:39;;;;;;;;;;;;;;;14.54;73.41;101239.25;5013757;28;19918;-75
2022/10/11 01:49:24;;;;;;;;;;;;;;;14.44;73.44;101233.34;5013917;28;19917;-76
2022/10/11 01:52:15;;;;;;;;;;;;;;;14.00;74.57;101224.44;5090772;28;19913;-76
2022/10/11 01:55:23;;;;;;;;;;;;;;;13.95;74.62;101215.63;5090466;28;20273;-78
2022/10/11 01:58:23;;;;;;;;;;;;;;;13.84;74.87;101222.53;5092696;28;19920;-76
2022/10/11 02:01:17;;;;;;;;;;;;;;;13.69;75.56;101213.72;5090253;28;19917;-78
2022/10/11 02:04:14;;;;;;;;;;;;;;;13.69;76.19;101213.72;5085108;28;19920;-75
2022/10/11 02:07:16;;;;;;;;;;;;;;;13.65;76.87;101212.78;5083162;28;19940;-75
2022/10/11 02:10:12;;;;;;;;;;;;;;;13.80;76.36;101213.38;5090765;28;19916;-75
2022/10/11 02:13:00;;;;;;;;;;;;;;;14.04;75.21;101211.72;5107103;28;20290;-77
2022/10/11 02:15:46;;;;;;;;;;;;;;;14.01;74.68;101209.66;5084463;28;20395;-76
2022/10/11 02:18:33;;;;;;;;;;;;;;;13.95;74.27;101210.13;5103541;28;20394;-77
2022/10/11 02:21:19;;;;;;;;;;;;;;;13.51;76.19;101203.94;5106937;28;19920;-75
2022/10/11 02:24:08;;;;;;;;;;;;;;;13.11;77.89;101197.81;5098337;28;19916;-75
2022/10/11 02:26:55;;;;;;;;;;;;;;;13.14;78.10;101191.75;5110245;28;19915;-77
2022/10/11 02:29:42;;;;;;;;;;;;;;;13.22;77.71;101192.84;5089846;28;19916;-77
2022/10/11 02:32:28;;;;;;;;;;;;;;;13.10;78.54;101185.28;5104025;28;19920;-77
2022/10/11 02:35:13;;;;;;;;;;;;;;;13.31;77.88;101190.91;5087482;28;20296;-77
2022/10/11 02:38:04;;;;;;;;;;;;;;;13.31;78.29;101190.91;5069229;28;19916;-77
2022/10/11 02:40:53;;;;;;;;;;;;;;;13.30;77.87;101194.00;5088465;28;19917;-76
2022/10/11 02:43:42;;;;;;;;;;;;;;;13.43;77.89;101195.75;5071555;22;20416;-84
2022/10/11 02:46:29;;;;;;;;;;;;;;;13.39;77.75;101192.88;5054057;28;19921;-83
2022/10/11 02:49:15;;;;;;;;;;;;;;;13.43;77.32;101193.00;5050959;28;19917;-82
2022/10/11 02:51:59;;;;;;;;;;;;;;;13.26;77.92;101191.06;5050060;28;19921;-83
2022/10/11 02:54:44;;;;;;;;;;;;;;;13.15;78.33;101187.09;5050871;28;19917;-82
2022/10/11 02:57:28;;;;;;;;;;;;;;;13.27;78.11;101181.75;5050654;28;20388;-82
2022/10/11 03:00:13;;;;;;;;;;;;;;;13.43;77.45;101185.63;5049240;28;19921;-82
2022/10/11 03:02:57;;;;;;;;;;;;;;;13.60;76.88;101190.28;5022611;28;19917;-82
2022/10/11 03:05:42;;;;;;;;;;;;;;;13.88;75.54;101182.47;5035848;28;19917;-82
2022/10/11 03:08:27;;;;;;;;;;;;;;;13.95;74.49;101182.81;5017818;28;19918;-82
2022/10/11 03:11:11;;;;;;;;;;;;;;;13.91;74.84;101192.78;5017941;28;19922;-83
2022/10/11 03:13:55;;;;;;;;;;;;;;;13.89;75.12;101181.38;5031341;28;20385;-83
2022/10/11 03:16:40;;;;;;;;;;;;;;;13.91;74.92;101187.31;5043928;28;20311;-83
2022/10/11 03:19:24;;;;;;;;;;;;;;;13.97;74.55;101195.00;5019423;28;19921;-82
2022/10/11 03:22:09;;;;;;;;;;;;;;;13.92;74.36;101188.91;5018644;28;19917;-83
2022/10/11 03:24:53;;;;;;;;;;;;;;;13.83;74.66;101191.66;5023017;28;19922;-83
2022/10/11 03:27:38;;;;;;;;;;;;;;;13.87;74.77;101186.34;5017102;28;19917;-84
2022/10/11 03:30:22;;;;;;;;;;;;;;;13.93;74.45;101188.59;5020962;28;20064;-83
2022/10/11 03:33:07;;;;;;;;;;;;;;;13.87;74.86;101186.34;5018935;28;19929;-83
2022/10/11 03:35:51;;;;;;;;;;;;;;;13.96;74.06;101187.94;5035110;28;19917;-83
2022/10/11 03:38:35;;;;;;;;;;;;;;;14.01;73.15;101200.66;5022746;28;19917;-82
2022/10/11 03:41:20;;;;;;;;;;;;;;;13.93;73.43;101198.72;5057046;28;19917;-83
2022/10/11 03:44:04;;;;;;;;;;;;;;;13.90;73.15;101199.38;5016786;28;19921;-82
2022/10/11 03:46:49;;;;;;;;;;;;;;;13.81;73.05;101201.34;5016926;28;19917;-83
2022/10/11 03:49:33;;;;;;;;;;;;;;;13.75;73.50;101197.16;5036864;28;19918;-82
2022/10/11 03:52:18;;;;;;;;;;;;;;;13.70;73.93;101193.47;5021123;28;19921;-82
2022/10/11 03:55:02;;;;;;;;;;;;;;;13.70;74.20;101198.94;5034737;28;20307;-82
2022/10/11 03:57:47;;;;;;;;;;;;;;;13.17;76.38;101201.19;5051455;28;19917;-82
2022/10/11 04:00:32;;;;;;;;;;;;;;;13.43;76.04;101202.00;5035471;28;19917;-83
2022/10/11 04:03:17;;;;;;;;;;;;;;;13.41;75.62;101200.75;5044222;28;19918;-81
2022/10/11 04:06:01;;;;;;;;;;;;;;;12.77;79.10;101195.03;5034825;28;19917;-82
2022/10/11 04:08:45;;;;;;;;;;;;;;;12.60;79.91;101195.78;5035500;28;19918;-81
2022/10/11 04:11:30;;;;;;;;;;;;;;;12.56;80.23;101194.00;5032014;28;19921;-82
2022/10/11 04:14:14;;;;;;;;;;;;;;;12.75;79.39;101198.06;5035940;28;19917;-82
2022/10/11 04:16:59;;;;;;;;;;;;;;;12.75;79.76;101194.53;5029127;28;20396;-82
2022/10/11 04:19:43;;;;;;;;;;;;;;;12.99;78.46;101194.09;5040205;28;19921;-82
2022/10/11 04:22:28;;;;;;;;;;;;;;;13.14;77.49;101191.75;5029205;28;19921;-83
2022/10/11 04:25:13;;;;;;;;;;;;;;;13.08;78.55;101192.97;5032154;28;19917;-82
2022/10/11 04:27:57;;;;;;;;;;;;;;;13.33;76.92;101196.06;5043204;28;19996;-82
2022/10/11 04:30:42;;;;;;;;;;;;;;;13.44;75.26;101203.63;5034236;28;19921;-82
2022/10/11 04:33:26;;;;;;;;;;;;;;;13.47;73.60;101216.63;5034664;28;20380;-82
2022/10/11 04:36:10;;;;;;;;;;;;;;;13.42;73.82;101205.88;5034740;28;19921;-82
2022/10/11 04:38:56;;;;;;;;;;;;;;;13.39;74.12;101214.72;5035925;28;20514;-82
2022/10/11 04:41:40;;;;;;;;;;;;;;;13.46;74.15;101203.31;5033221;28;19917;-82
2022/10/11 04:44:25;;;;;;;;;;;;;;;13.47;73.73;101202.16;5048581;28;19917;-83
2022/10/11 04:47:09;;;;;;;;;;;;;;;13.33;73.69;101202.34;5035102;28;20385;-82
2022/10/11 04:49:53;;;;;;;;;;;;;;;13.44;73.39;101209.09;5033340;28;19921;-84
2022/10/11 04:52:38;;;;;;;;;;;;;;;13.41;73.91;101208.94;5026166;28;19921;-83
2022/10/11 04:55:24;;;;;;;;;;;;;;;13.19;75.16;101204.44;5027003;28;20380;-82
2022/10/11 04:58:09;;;;;;;;;;;;;;;13.23;74.82;101202.66;5051058;28;19925;-82
2022/10/11 05:00:53;;;;;;;;;;;;;;;13.32;74.68;101208.91;5020596;28;19921;-82
2022/10/11 05:03:38;;;;;;;;;;;;;;;13.33;74.21;101209.72;5016108;28;19917;-81
2022/10/11 05:06:23;;;;;;;;;;;;;;;13.31;73.01;101210.03;5016516;28;20301;-82
2022/10/11 05:09:07;;;;;;;;;;;;;;;13.18;73.43;101200.09;5015225;28;19917;-81
2022/10/11 05:11:52;;;;;;;;;;;;;;;13.14;73.61;101207.31;5031671;28;19921;-82
2022/10/11 05:14:36;;;;;;;;;;;;;;;13.00;74.34;101218.38;5028801;28;19918;-82
2022/10/11 05:17:21;;;;;;;;;;;;;;;12.97;74.63;101213.53;5032157;28;19917;-81
2022/10/11 05:20:05;;;;;;;;;;;;;;;12.90;74.71;101220.59;5034484;28;19917;-81
2022/10/11 05:22:50;;;;;;;;;;;;;;;13.01;75.53;101208.22;5033501;28;19917;-81
2022/10/11 05:25:34;;;;;;;;;;;;;;;12.61;76.24;101211.03;5016244;28;19917;-81
2022/10/11 05:28:19;;;;;;;;;;;;;;;12.86;75.85;101207.56;5033904;28;20323;-81
2022/10/11 05:31:03;;;;;;;;;;;;;;;12.89;76.09;101211.59;5033982;28;19925;-82
2022/10/11 05:33:48;;;;;;;;;;;;;;;12.98;75.35;101206.94;5034798;28;19917;-82
2022/10/11 05:36:35;;;;;;;;;;;;;;;13.03;76.05;101212.25;5020559;28;20459;-82
2022/10/11 05:39:19;;;;;;;;;;;;;;;12.93;76.70;101214.47;5014712;28;20020;-82
2022/10/11 05:42:04;;;;;;;;;;;;;;;12.37;78.59;101224.25;5015054;28;19929;-82
2022/10/11 05:44:48;;;;;;;;;;;;;;;12.82;76.35;101222.16;5023776;28;19917;-81
2022/10/11 05:47:33;;;;;;;;;;;;;;;12.57;75.79;101214.72;5054360;28;19917;-82
2022/10/11 05:50:17;;;;;;;;;;;;;;;13.01;75.24;101225.41;5035696;28;19936;-82
2022/10/11 05:53:02;;;;;;;;;;;;;;;12.56;76.72;101238.44;5032045;28;19933;-80
2022/10/11 05:55:46;;;;;;;;;;;;;;;13.25;75.30;101228.53;5029718;28;19917;-84
2022/10/11 05:58:31;;;;;;;;;;;;;;;14.49;71.37;101257.78;5034568;28;19917;-85
2022/10/11 06:01:16;;;;;;;;;;;;;;;15.75;65.22;101254.88;5024070;28;19918;-82
2022/10/11 06:04:01;;;;;;;;;;;;;;;16.36;62.47;101252.31;5027157;28;19917;-82
2022/10/11 06:06:46;;;;;;;;;;;;;;;17.50;58.84;101255.59;5035563;28;19917;-82
2022/10/11 06:09:30;;;;;;;;;;;;;;;17.49;58.26;101255.94;5036369;28;19921;-83
2022/10/11 06:12:15;;;;;;;;;;;;;;;19.45;53.26;101260.63;5035884;28;19921;-84
2022/10/11 06:14:59;;;;;;;;;;;;;;;20.09;50.63;101261.88;5041362;28;19917;-83
2022/10/11 06:17:45;;;;;;;;;;;;;;;20.37;50.02;101265.16;5035903;28;20308;-83
2022/10/11 06:20:29;;;;;;;;;;;;;;;18.49;54.87;101271.28;5035101;28;19916;-81
2022/10/11 06:23:13;;;;;;;;;;;;;;;17.31;58.83;101266.41;5049656;28;20570;-81
2022/10/11 06:26:04;;;;;;;;;;;;;;;16.58;61.75;101271.94;5035195;28;20304;-82
2022/10/11 06:28:49;;;;;;;;;;;;;;;16.53;63.15;101271.34;5034296;28;19917;-82
2022/10/11 06:31:33;;;;;;;;;;;;;;;16.51;63.67;101271.66;5034832;28;19921;-81
2022/10/11 06:34:17;;;;;;;;;;;;;;;16.45;64.26;101277.75;5034757;28;19917;-81
2022/10/11 06:37:02;;;;;;;;;;;;;;;16.30;65.01;101286.63;5030045;28;19917;-81
2022/10/11 06:39:46;;;;;;;;;;;;;;;16.31;65.35;101289.00;5040667;28;20392;-82
2022/10/11 06:42:30;;;;;;;;;;;;;;;16.07;66.25;101289.75;5034331;28;19917;-82
2022/10/11 06:45:15;;;;;;;;;;;;;;;16.27;66.37;101283.41;5036294;28;20372;-81
2022/10/11 06:48:00;;;;;;;;;;;;;;;16.15;67.63;101297.09;5041247;28;20331;-82
2022/10/11 06:50:45;;;;;;;;;;;;;;;16.15;67.76;101296.31;5053917;28;19917;-81
2022/10/11 06:53:29;;;;;;;;;;;;;;;16.13;67.81;101299.38;5027961;28;19917;-82
2022/10/11 06:56:14;;;;;;;;;;;;;;;16.03;68.41;101299.81;5034801;28;19921;-82
2022/10/11 06:58:59;;;;;;;;;;;;;;;16.36;67.86;101301.72;5044830;28;19917;-81
2022/10/11 07:01:43;;;;;;;;;;;;;;;16.04;69.48;101298.69;5018006;28;19918;-82
2022/10/11 07:04:27;;;;;;;;;;;;;;;15.89;69.34;101298.50;5022388;28;19917;-82
2022/10/11 07:07:13;;;;;;;;;;;;;;;15.77;70.08;101300.03;5018490;28;19917;-82
2022/10/11 07:09:57;;;;;;;;;;;;;;;16.26;68.42;101301.00;5018684;28;19918;-81
2022/10/11 07:12:42;;;;;;;;;;;;;;;16.18;68.08;101307.41;5018108;28;19921;-81
2022/10/11 07:15:26;;;;;;;;;;;;;;;16.25;69.20;101304.91;5020292;28;19917;-82
2022/10/11 07:18:11;;;;;;;;;;;;;;;16.54;67.95;101308.63;5018956;28;19918;-82
2022/10/11 07:20:55;;;;;;;;;;;;;;;16.74;67.28;101318.75;5023299;28;19918;-81
2022/10/11 07:23:41;;;;;;;;;;;;;;;16.81;66.74;101316.22;5018437;28;19917;-81
2022/10/11 07:26:25;;;;;;;;;;;;;;;17.05;65.90;101319.00;5032917;28;19918;-82
2022/10/11 07:29:11;;;;;;;;;;;;;;;17.41;63.26;101314.63;5022555;28;19918;-84
2022/10/11 07:31:55;;;;;;;;;;;;;;;17.35;63.15;101316.00;5049284;28;20023;-83
2022/10/11 07:34:40;;;;;;;;;;;;;;;17.36;64.01;101318.41;5026957;28;19917;-83
2022/10/11 07:37:24;;;;;;;;;;;;;;;17.16;63.87;101315.78;5039856;28;19920;-82
2022/10/11 07:40:10;;;;;;;;;;;;;;;16.88;64.76;101319.22;5040827;28;19917;-83
2022/10/11 07:42:56;;;;;;;;;;;;;;;17.44;62.96;101319.41;5037732;28;19921;-82
2022/10/11 07:45:43;;;;;;;;;;;;;;;17.81;62.14;101322.91;5036783;28;20702;-82
2022/10/11 07:48:30;;;;;;;;;;;;;;;17.97;61.96;101329.28;5042887;28;19917;-83
2022/10/11 07:51:17;;;;;;;;;;;;;;;17.88;62.40;101323.09;5037982;28;19925;-82
2022/10/11 07:54:02;;;;;;;;;;;;;;;18.12;61.65;101330.47;5036857;28;19921;-82
2022/10/11 07:56:46;;;;;;;;;;;;;;;17.92;61.14;101330.34;5040702;28;19917;-82
2022/10/11 07:59:31;;;;;;;;;;;;;;;17.87;62.00;101330.56;5042215;28;19917;-82
2022/10/11 08:02:15;;;;;;;;;;;;;;;18.28;59.94;101325.81;5040888;28;19917;-83
2022/10/11 08:05:00;;;;;;;;;;;;;;;18.41;58.89;101343.84;5043363;28;20380;-83
2022/10/11 08:07:44;;;;;;;;;;;;;;;18.42;58.70;101331.69;5037334;28;20312;-83
2022/10/11 08:10:29;;;;;;;;;;;;;;;18.59;58.04;101339.63;5042846;28;19917;-83
2022/10/11 08:13:13;;;;;;;;;;;;;;;17.98;59.66;101339.09;5038438;28;19922;-82
2022/10/11 08:15:58;;;;;;;;;;;;;;;17.66;61.08;101337.41;5037549;28;19917;-82
2022/10/11 08:18:42;;;;;;;;;;;;;;;17.71;61.70;101334.41;5037405;28;20406;-82
2022/10/11 08:21:27;;;;;;;;;;;;;;;17.74;61.55;101340.00;5037291;28;19917;-82
2022/10/11 08:24:12;;;;;;;;;;;;;;;17.75;61.48;101333.34;5039345;28;19917;-83
2022/10/11 08:26:57;;;;;;;;;;;;;;;17.80;60.78;101341.38;5037583;28;19917;-82
2022/10/11 08:29:41;;;;;;;;;;;;;;;18.42;59.47;101345.47;5037140;28;20292;-82
2022/10/11 08:32:26;;;;;;;;;;;;;;;18.34;59.23;101338.16;5039621;28;20388;-83
2022/10/11 08:35:10;;;;;;;;;;;;;;;18.32;59.37;101341.28;5037112;28;19917;-83
2022/10/11 08:37:55;;;;;;;;;;;;;;;18.59;58.53;101342.38;5042612;28;19921;-84
2022/10/11 08:40:56;;;;;;;;;;;;;;;18.72;58.40;101349.44;5042815;28;19917;-83
2022/10/11 08:43:50;;;;;;;;;;;;;;;18.79;58.16;101355.13;5073754;23;19917;-82
2022/10/11 08:46:36;;;;;;;;;;;;;;;19.27;57.30;101355.09;5009029;28;19925;-82
2022/10/11 08:49:23;;;;;;;;;;;;;;;19.56;56.05;101363.69;5013982;28;19917;-81
2022/10/11 08:52:12;;;;;;;;;;;;;;;19.30;56.75;101357.16;5027657;28;19921;-81
2022/10/11 08:55:00;;;;;;;;;;;;;;;19.39;56.11;101349.47;5016341;28;19918;-81
2022/10/11 08:57:49;;;;;;;;;;;;;;;19.21;55.87;101352.63;5015259;28;20395;-81
2022/10/11 09:00:37;;;;;;;;;;;;;;;19.90;54.17;101355.75;5012818;28;19921;-81
2022/10/11 09:03:21;;;;;;;;;;;;;;;19.82;53.90;101354.81;5017672;28;19918;-81
2022/10/11 09:06:24;;;;;;;;;;;;;;;20.29;53.29;101346.28;4995957;28;20296;-81
2022/10/11 09:09:12;;;;;;;;;;;;;;;19.82;54.97;101345.72;4998175;28;19918;-82
2022/10/11 09:11:56;;;;;;;;;;;;;;;20.36;53.42;101348.44;4999980;28;19921;-84
2022/10/11 09:14:44;;;;;;;;;;;;;;;20.05;53.34;101341.09;5000645;28;19918;-83
2022/10/11 09:17:51;;;;;;;;;;;;;;;20.44;52.55;101337.13;5001345;28;19917;-81
2022/10/11 09:20:54;;;;;;;;;;;;;;;20.54;52.92;101335.72;5010666;28;19922;-81
2022/10/11 09:23:58;;;;;;;;;;;;;;;20.36;53.26;101335.41;5000237;28;19918;-81
2022/10/11 09:26:51;;;;;;;;;;;;;;;20.67;52.20;101344.66;5010572;28;19917;-82
2022/10/11 09:29:38;;;;;;;;;;;;;;;20.90;50.98;101335.19;5008193;28;20393;-81
2022/10/11 09:32:27;;;;;;;;;;;;;;;21.00;50.68;101339.28;4997866;28;19922;-81
2022/10/11 09:35:14;;;;;;;;;;;;;;;20.99;50.78;101340.44;5009056;28;19918;-81
2022/10/11 09:38:09;;;;;;;;;;;;;;;21.52;49.27;101340.50;5005891;28;19917;-78
2022/10/11 09:41:00;;;;;;;;;;;;;;;21.71;49.27;101349.47;5029820;28;19925;-82
2022/10/11 09:43:49;;;;;;;;;;;;;;;21.74;48.72;101347.91;5016872;28;20424;-81
2022/10/11 09:46:39;;;;;;;;;;;;;;;21.72;48.05;101345.53;5034108;28;19922;-85
2022/10/11 09:49:29;;;;;;;;;;;;;;;21.76;47.61;101345.56;5033208;28;19918;-83
2022/10/11 09:52:15;;;;;;;;;;;;;;;22.35;46.84;101349.47;5015314;28;19922;-83
2022/10/11 09:55:01;;;;;;;;;;;;;;;22.16;46.59;101345.69;5015499;28;19917;-82
2022/10/11 09:57:53;;;;;;;;;;;;;;;22.44;46.70;101344.41;5016173;28;19922;-81
2022/10/11 10:00:38;;;;;;;;;;;;;;;22.61;46.25;101347.34;5021120;28;19918;-83
2022/10/11 10:03:27;;;;;;;;;;;;;;;22.71;46.07;101340.34;5020364;28;19917;-83
2022/10/11 10:06:25;;;;;;;;;;;;;;;23.07;45.09;101344.22;5019050;28;19917;-81
2022/10/11 10:09:27;;;;;;;;;;;;;;;23.18;44.09;101350.63;5032354;28;19917;-81
2022/10/11 10:12:19;;;;;;;;;;;;;;;23.00;45.06;101342.19;5028271;28;19921;-81
2022/10/11 10:15:06;;;;;;;;;;;;;;;23.30;43.85;101349.53;5007743;28;19925;-82
2022/10/11 10:17:51;;;;;;;;;;;;;;;24.03;42.34;101342.00;5015374;28;19917;-83
2022/10/11 10:20:36;;;;;;;;;;;;;;;24.56;41.45;101351.31;5034411;28;19921;-82
2022/10/11 10:23:41;;;;;;;;;;;;;;;24.54;40.74;101350.09;5016154;28;19917;-83
2022/10/11 10:26:26;;;;;;;;;;;;;;;23.68;42.99;101343.44;5009484;28;20401;-82
2022/10/11 10:29:10;;;;;;;;;;;;;;;23.90;41.81;101346.31;5002706;28;19918;-82
2022/10/11 10:31:56;;;;;;;;;;;;;;;23.58;43.55;101355.28;5002654;28;19921;-82
2022/10/11 10:34:51;;;;;;;;;;;;;;;23.86;42.28;101360.22;4999545;28;19917;-82
2022/10/11 10:37:51;;;;;;;;;;;;;;;24.43;41.25;101346.53;5028674;28;19922;-83
2022/10/11 10:40:41;;;;;;;;;;;;;;;23.57;42.79;101348.13;5044546;28;19921;-83
2022/10/11 10:43:33;;;;;;;;;;;;;;;24.45;41.62;101346.91;5015311;28;19917;-82
2022/10/11 10:46:26;;;;;;;;;;;;;;;23.98;42.37;101345.16;5016379;28;20365;-83
2022/10/11 10:49:30;;;;;;;;;;;;;;;24.89;41.44;101341.06;5035719;28;19917;-83
2022/10/11 10:52:35;;;;;;;;;;;;;;;24.99;39.95;101335.44;5015841;28;19922;-82
2022/10/11 10:55:38;;;;;;;;;;;;;;;24.52;41.98;101335.81;4999665;28;19917;-82
2022/10/11 10:58:41;;;;;;;;;;;;;;;24.43;40.81;101330.63;5002291;28;19917;-82
2022/10/11 11:01:28;;;;;;;;;;;;;;;24.73;40.53;101330.28;5016101;28;19921;-82
2022/10/11 11:04:30;;;;;;;;;;;;;;;24.70;40.76;101337.41;5014248;28;19918;-82
2022/10/11 11:07:26;;;;;;;;;;;;;;;24.76;40.54;101328.69;5023241;28;19918;-85
2022/10/11 11:10:19;;;;;;;;;;;;;;;25.42;39.25;101329.84;5019509;28;19917;-82
2022/10/11 11:13:07;;;;;;;;;;;;;;;25.09;39.74;101331.09;5026698;28;19925;-82
2022/10/11 11:15:57;;;;;;;;;;;;;;;24.16;42.06;101334.91;5028358;28;19917;-82
2022/10/11 11:18:50;;;;;;;;;;;;;;;24.24;42.04;101330.97;5018419;28;19918;-82
2022/10/11 11:21:42;;;;;;;;;;;;;;;25.11;40.36;101328.69;5016112;28;19917;-82
2022/10/11 11:24:46;;;;;;;;;;;;;;;23.51;43.09;101333.06;5024631;28;20328;-80
2022/10/11 11:27:43;;;;;;;;;;;;;;;23.74;43.44;101338.31;5016990;28;19917;-82
2022/10/11 11:30:34;;;;;;;;;;;;;;;24.46;41.69;101335.41;4998971;28;20304;-84
2022/10/11 11:33:18;;;;;;;;;;;;;;;24.64;41.49;101335.41;5031754;28;19922;-83
2022/10/11 11:36:08;;;;;;;;;;;;;;;24.49;42.05;101329.03;5016191;28;20385;-82
2022/10/11 11:39:00;;;;;;;;;;;;;;;24.77;40.87;101330.28;5010618;28;20296;-83
2022/10/11 11:41:55;;;;;;;;;;;;;;;25.10;40.82;101327.09;4995476;28;19918;-82
2022/10/11 11:44:42;;;;;;;;;;;;;;;25.94;38.18;101325.31;4995456;28;19918;-82
2022/10/11 11:47:33;;;;;;;;;;;;;;;26.89;37.71;101335.09;5012678;28;19918;-81
2022/10/11 11:50:21;;;;;;;;;;;;;;;29.65;32.30;101336.88;5015886;28;19917;-80
2022/10/11 11:53:12;;;;;;;;;;;;;;;30.36;30.56;101335.34;5014463;28;19921;-80
2022/10/11 11:56:07;;;;;;;;;;;;;;;30.88;29.30;101338.13;5027618;28;20123;-82
2022/10/11 11:58:58;;;;;;;;;;;;;;;31.34;28.91;101333.34;5015714;28;19917;-82
2022/10/11 12:01:51;;;;;;;;;;;;;;;29.67;30.88;101333.63;5040491;28;19917;-84
2022/10/11 12:04:38;;;;;;;;;;;;;;;28.37;33.14;101326.25;5032643;28;19917;-84
2022/10/11 12:07:24;;;;;;;;;;;;;;;28.38;33.21;101333.44;5025731;28;19921;-82
2022/10/11 12:10:22;;;;;;;;;;;;;;;29.67;31.43;101334.41;5012695;28;19921;-82
2022/10/11 12:13:20;;;;;;;;;;;;;;;29.37;31.88;101334.59;5029531;28;19926;-83
2022/10/11 12:16:05;;;;;;;;;;;;;;;31.80;27.84;101332.84;5011571;28;20320;-82
2022/10/11 12:18:56;;;;;;;;;;;;;;;35.51;22.92;101343.00;5031645;28;19917;-83
2022/10/11 12:21:42;;;;;;;;;;;;;;;35.69;22.47;101339.41;5024254;28;19917;-82
2022/10/11 12:24:47;;;;;;;;;;;;;;;38.00;19.08;101354.91;5005680;28;19922;-82
2022/10/11 12:27:41;;;;;;;;;;;;;;;36.84;20.75;101339.13;5007269;28;20284;-83
2022/10/11 12:30:47;;;;;;;;;;;;;;;32.10;26.18;101331.53;5013607;28;19917;-82
2022/10/11 12:33:31;;;;;;;;;;;;;;;33.58;23.79;101330.66;5013781;28;19922;-83
2022/10/11 12:36:29;;;;;;;;;;;;;;;30.20;28.31;101324.09;5032676;28;19917;-81
2022/10/11 12:39:19;;;;;;;;;;;;;;;29.51;29.60;101320.31;5013322;28;20293;-81
2022/10/11 12:42:05;;;;;;;;;;;;;;;31.41;27.03;101319.88;5013662;28;20385;-81
2022/10/11 12:45:08;;;;;;;;;;;;;;;33.49;24.01;101324.94;5028680;28;20357;-81
2022/10/11 12:48:08;;;;;;;;;;;;;;;33.74;23.17;101321.22;5017654;28;19918;-81
2022/10/11 12:51:04;;;;;;;;;;;;;;;37.68;18.64;101338.84;5029167;28;19917;-81
2022/10/11 12:54:05;;;;;;;;;;;;;;;35.63;20.78;101324.28;5013202;28;19921;-81
2022/10/11 12:56:55;;;;;;;;;;;;;;;38.13;17.82;101325.41;5029884;28;20373;-83
2022/10/11 12:59:42;;;;;;;;;;;;;;;35.93;20.54;101316.84;5013236;28;19917;-83
2022/10/11 13:02:41;;;;;;;;;;;;;;;39.88;16.89;101328.72;5031554;28;19921;-83
2022/10/11 13:05:41;;;;;;;;;;;;;;;42.22;14.73;101339.88;5027645;28;20301;-83
2022/10/11 13:08:28;;;;;;;;;;;;;;;40.86;15.78;101323.47;5013546;28;19918;-81
2022/10/11 13:11:19;;;;;;;;;;;;;;;39.74;17.03;101314.06;5030582;28;19917;-81
2022/10/11 13:14:10;;;;;;;;;;;;;;;39.33;16.76;101307.72;5027997;28;19922;-81
2022/10/11 13:16:59;;;;;;;;;;;;;;;36.58;18.82;101301.16;5031799;28;19918;-82
2022/10/11 13:19:43;;;;;;;;;;;;;;;37.52;18.68;101308.03;5012761;28;19918;-80
2022/10/11 13:22:28;;;;;;;;;;;;;;;35.45;20.70;101294.00;5027922;28;19921;-81
2022/10/11 13:25:17;;;;;;;;;;;;;;;31.64;25.16;101287.16;5025925;28;19921;-80
2022/10/11 13:28:02;;;;;;;;;;;;;;;33.44;23.64;101286.06;5012917;28;19918;-80
2022/10/11 13:30:48;;;;;;;;;;;;;;;34.00;23.28;101285.16;5027310;28;19917;-81
2022/10/11 13:33:39;;;;;;;;;;;;;;;33.48;24.02;101286.69;5031294;28;19922;-82
2022/10/11 13:36:25;;;;;;;;;;;;;;;32.99;24.04;101292.88;5012785;28;19918;-80
2022/10/11 13:39:23;;;;;;;;;;;;;;;33.20;23.70;101287.75;5027000;28;19918;-81
2022/10/11 13:42:13;;;;;;;;;;;;;;;32.53;23.53;101274.69;5031017;28;20405;-81
2022/10/11 13:44:58;;;;;;;;;;;;;;;32.47;24.16;101264.44;5028596;28;19921;-82
2022/10/11 13:47:44;;;;;;;;;;;;;;;30.46;26.99;101271.78;5012664;28;19917;-82
2022/10/11 13:50:33;;;;;;;;;;;;;;;31.53;25.92;101264.13;5016477;28;19917;-81
2022/10/11 13:53:18;;;;;;;;;;;;;;;31.72;25.65;101277.25;5012530;28;19925;-81
2022/10/11 13:56:04;;;;;;;;;;;;;;;31.89;25.09;101267.50;5026566;28;19917;-81
2022/10/11 13:58:48;;;;;;;;;;;;;;;29.82;28.27;101258.41;5030574;28;19921;-81
2022/10/11 14:01:42;;;;;;;;;;;;;;;27.94;30.84;101265.28;5028840;28;19917;-80
2022/10/11 14:04:37;;;;;;;;;;;;;;;29.49;29.27;101258.31;5026337;28;19917;-81
2022/10/11 14:07:28;;;;;;;;;;;;;;;30.33;27.70;101259.66;5012449;28;20373;-81
2022/10/11 14:10:18;;;;;;;;;;;;;;;32.34;25.08;101264.47;5027815;28;19918;-81
2022/10/11 14:13:22;;;;;;;;;;;;;;;30.82;26.55;101257.66;5025576;28;19925;-81
2022/10/11 14:16:08;;;;;;;;;;;;;;;30.69;27.01;101256.78;5012156;28;20301;-82
2022/10/11 14:18:58;;;;;;;;;;;;;;;28.41;30.17;101254.22;5012522;28;19917;-83
2022/10/11 14:21:50;;;;;;;;;;;;;;;28.18;30.67;101248.63;5017826;28;19921;-83